Time;durP1;ratioP1;P1;durP2;ratioP2;P2;SDS_P1;SDS_P2;PMS_P1;PMS_P2;Temp;Humidity;BMP_temperature;BMP_pressure;BME280_temperature;BME280_humidity;BME280_pressure;Samples;Min_cycle;Max_cycle;Signal;HPM_P1;HPM_P2
2022/12/27 00:01:28;;;;;;;3.40;1.70;;;;;;;4.42;100.00;94664.31;4989676;28;20034;-65
2022/12/27 00:03:55;;;;;;;4.32;2.05;;;;;;;4.50;100.00;94676.88;4989859;28;20049;-64
2022/12/27 00:06:24;;;;;;;3.83;1.60;;;;;;;4.30;100.00;94683.47;4990051;28;20046;-64
2022/12/27 00:08:51;;;;;;;3.50;1.40;;;;;;;4.37;100.00;94680.91;4989939;28;20116;-64
2022/12/27 00:11:20;;;;;;;3.70;1.50;;;;;;;4.07;100.00;94691.53;4989893;28;20686;-65
2022/12/27 00:13:48;;;;;;;4.50;1.77;;;;;;;3.75;100.00;94684.22;4989683;28;20039;-65
2022/12/27 00:16:17;;;;;;;5.57;2.10;;;;;;;3.81;100.00;94695.59;4980943;28;20410;-65
2022/12/27 00:18:45;;;;;;;3.33;1.50;;;;;;;3.68;100.00;94685.97;4987844;28;20056;-64
2022/12/27 00:21:13;;;;;;;4.07;1.60;;;;;;;3.66;100.00;94688.25;4988614;28;20042;-65
2022/12/27 00:23:43;;;;;;;4.00;1.77;;;;;;;3.55;100.00;94696.16;4992630;28;20038;-65
2022/12/27 00:26:19;;;;;;;3.63;1.77;;;;;;;3.52;100.00;94705.81;4993460;28;20038;-64
2022/12/27 00:28:46;;;;;;;3.60;1.83;;;;;;;3.48;100.00;94701.41;4993356;28;20406;-64
2022/12/27 00:31:14;;;;;;;4.60;1.90;;;;;;;3.43;100.00;94702.47;4993427;28;20046;-64
2022/12/27 00:33:43;;;;;;;3.63;1.98;;;;;;;3.34;100.00;94710.78;4993024;28;20050;-65
2022/12/27 00:36:29;;;;;;;3.83;1.65;;;;;;;3.27;100.00;94709.81;4993108;28;20042;-64
2022/12/27 00:38:57;;;;;;;4.28;1.77;;;;;;;3.04;100.00;94710.41;4992872;28;20182;-64
2022/12/27 00:41:24;;;;;;;5.38;2.10;;;;;;;3.11;100.00;94724.13;4992993;28;20048;-64
2022/12/27 00:43:51;;;;;;;4.78;1.70;;;;;;;2.99;100.00;94719.56;4992768;28;20438;-64
2022/12/27 00:46:18;;;;;;;3.80;1.70;;;;;;;3.06;100.00;94727.13;4980280;28;20043;-64
2022/12/27 00:48:45;;;;;;;4.03;1.98;;;;;;;3.07;100.00;94717.84;5007883;28;20054;-64
2022/12/27 00:51:16;;;;;;;4.90;1.70;;;;;;;3.08;100.00;94724.84;4992826;28;20053;-64
2022/12/27 00:53:43;;;;;;;3.60;2.00;;;;;;;3.06;100.00;94732.53;4992812;28;20057;-64
2022/12/27 00:56:13;;;;;;;3.40;1.63;;;;;;;3.10;100.00;94738.84;4992790;28;20046;-63
2022/12/27 00:58:40;;;;;;;4.10;1.48;;;;;;;3.07;100.00;94739.53;4992692;28;20057;-64
2022/12/27 01:01:16;;;;;;;4.95;1.70;;;;;;;3.05;100.00;94732.88;4992840;28;20088;-64
2022/12/27 01:03:43;;;;;;;4.40;1.80;;;;;;;2.94;100.00;94727.97;4992464;28;20124;-64
2022/12/27 01:06:13;;;;;;;4.32;1.90;;;;;;;2.91;100.00;94725.94;4992700;28;20046;-63
2022/12/27 01:08:41;;;;;;;4.83;1.97;;;;;;;2.98;100.00;94736.22;5003842;28;20042;-64
2022/12/27 01:11:09;;;;;;;4.00;1.90;;;;;;;2.97;100.00;94735.41;4994105;28;20038;-64
2022/12/27 01:13:37;;;;;;;4.43;1.63;;;;;;;2.95;100.00;94728.75;4992550;28;20046;-64
2022/12/27 01:16:13;;;;;;;5.57;1.80;;;;;;;2.79;100.00;94723.28;4992485;28;20047;-65
2022/12/27 01:18:40;;;;;;;3.75;1.88;;;;;;;2.75;100.00;94741.38;4992363;28;20045;-64
2022/12/27 01:21:08;;;;;;;3.60;1.60;;;;;;;2.86;100.00;94736.25;4992591;28;20058;-65
2022/12/27 01:23:36;;;;;;;4.30;1.90;;;;;;;2.82;100.00;94741.59;4991914;28;20042;-64
2022/12/27 01:26:06;;;;;;;10.90;3.65;;;;;;;2.90;100.00;94748.00;4991054;28;20039;-64
2022/12/27 01:28:33;;;;;;;5.95;2.20;;;;;;;2.73;100.00;94760.69;4992049;28;20113;-64
2022/12/27 01:31:10;;;;;;;5.72;2.10;;;;;;;2.66;100.00;94755.09;4994044;28;20437;-64
2022/12/27 01:33:37;;;;;;;6.50;2.47;;;;;;;2.73;100.00;94754.47;4998967;28;20053;-64
2022/12/27 01:36:15;;;;;;;4.90;2.30;;;;;;;2.60;100.00;94757.25;5007542;28;20049;-65
2022/12/27 01:38:42;;;;;;;4.10;2.38;;;;;;;2.51;100.00;94774.75;4992015;28;20111;-64
2022/12/27 01:44:36;;;;;;;6.07;2.10;;;;;;;2.30;100.00;94773.00;4991398;28;20938;-65
2022/12/27 01:47:12;;;;;;;5.90;2.00;;;;;;;2.28;100.00;94775.28;5006431;28;20046;-64
2022/12/27 01:49:52;;;;;;;3.85;2.20;;;;;;;2.36;100.00;94781.69;4991681;28;20065;-64
2022/12/27 01:52:20;;;;;;;5.20;2.55;;;;;;;2.32;100.00;94783.50;4991897;28;20038;-64
2022/12/27 01:54:47;;;;;;;6.28;2.00;;;;;;;2.14;100.00;94786.47;4991615;28;20047;-64
2022/12/27 01:57:14;;;;;;;6.07;2.40;;;;;;;2.19;100.00;94786.25;4992012;28;20042;-64
2022/12/27 01:59:41;;;;;;;3.87;1.80;;;;;;;2.14;100.00;94782.97;4991444;28;20161;-64
2022/12/27 02:02:08;;;;;;;5.10;1.90;;;;;;;2.08;100.00;94795.94;4990502;28;20084;-64
2022/12/27 02:04:35;;;;;;;4.07;1.98;;;;;;;2.08;100.00;94800.56;4991099;28;20050;-64
2022/12/27 02:07:01;;;;;;;5.28;1.92;;;;;;;2.08;100.00;94806.78;4991633;28;20039;-64
2022/12/27 02:09:52;;;;;;;4.70;2.35;;;;;;;2.07;100.00;94807.88;4991493;28;20038;-64
2022/12/27 02:12:20;;;;;;;3.92;1.80;;;;;;;2.05;100.00;94812.84;4990519;28;20376;-64
2022/12/27 02:14:48;;;;;;;6.55;2.30;;;;;;;1.97;100.00;94816.47;4991254;28;20376;-64
2022/12/27 02:17:25;;;;;;;4.47;2.42;;;;;;;1.98;100.00;94824.25;4991281;28;20050;-64
2022/12/27 02:20:11;;;;;;;4.90;2.10;;;;;;;1.89;100.00;94823.59;4991122;28;20434;-64
2022/12/27 02:26:32;;;;;;;5.40;2.50;;;;;;;1.56;100.00;94843.38;4990370;28;20773;-64
2022/12/27 02:29:23;;;;;;;5.88;2.13;;;;;;;1.55;100.00;94847.22;4990485;28;20600;-65
2022/12/27 02:31:59;;;;;;;5.55;2.42;;;;;;;1.54;100.00;94848.31;4990731;28;20054;-64
2022/12/27 02:34:33;;;;;;;4.72;1.98;;;;;;;1.47;100.00;94855.41;4990969;28;20042;-64
2022/12/27 02:37:07;;;;;;;4.60;2.17;;;;;;;1.35;100.00;94848.06;4990522;28;21723;-64
2022/12/27 02:39:38;;;;;;;7.72;3.08;;;;;;;1.31;100.00;94849.84;4995267;28;20042;-62
2022/12/27 02:54:17;;;;;;;22.45;8.05;;;;;;;1.10;100.00;94864.19;4999942;28;21622;-65
2022/12/27 02:57:10;;;;;;;9.10;3.83;;;;;;;0.95;100.00;94875.63;4972054;28;20044;-65
2022/12/27 03:09:08;;;;;;;7.03;2.05;;;;;;;0.70;100.00;94893.59;4983656;28;20505;-65
2022/12/27 03:17:39;;;;;;;4.70;1.90;;;;;;;1.09;100.00;94878.06;4990776;28;20050;-65
2022/12/27 03:25:49;;;;;;;5.18;2.33;;;;;;;0.98;100.00;94897.34;4989777;28;20112;-64
2022/12/27 03:34:30;;;;;;;5.25;2.10;;;;;;;0.98;100.00;94899.28;4989780;28;20641;-65
2022/12/27 03:40:33;;;;;;;5.95;1.90;;;;;;;0.87;100.00;94909.69;4987537;28;20414;-64
2022/12/27 03:43:09;;;;;;;4.45;2.00;;;;;;;0.84;100.00;94914.97;4989406;28;20299;-64
2022/12/27 03:48:54;;;;;;;4.55;1.92;;;;;;;0.39;100.00;94900.94;4981737;28;20379;-64
2022/12/27 03:51:23;;;;;;;3.80;1.70;;;;;;;0.48;100.00;94913.59;4990294;28;20050;-64
2022/12/27 03:53:57;;;;;;;6.55;2.40;;;;;;;0.33;100.00;94909.56;4989916;28;20549;-64
2022/12/27 03:56:24;;;;;;;7.65;3.20;;;;;;;0.17;100.00;94918.19;4989989;28;20380;-64
2022/12/27 03:58:51;;;;;;;5.65;2.42;;;;;;;0.33;100.00;94920.34;4993701;28;20050;-64
2022/12/27 04:01:18;;;;;;;4.05;1.80;;;;;;;0.34;100.00;94917.34;4993989;28;20064;-64
2022/12/27 04:03:45;;;;;;;3.78;1.48;;;;;;;0.27;100.00;94906.25;4993275;28;20043;-65
2022/12/27 04:06:12;;;;;;;4.05;1.38;;;;;;;0.16;100.00;94910.41;4994123;28;20048;-64
2022/12/27 04:36:10;;;;;;;4.35;1.42;;;;;;;-0.45;100.00;94911.41;4992796;28;20093;-64
2022/12/27 04:38:36;;;;;;;3.22;1.42;;;;;;;-0.47;100.00;94907.44;4992489;28;20042;-64
2022/12/27 04:55:23;;;;;;;3.60;1.50;;;;;;;-0.36;100.00;94921.38;4992411;28;20376;-64
2022/12/27 04:57:51;;;;;;;3.72;1.50;;;;;;;-0.33;100.00;94926.16;4992866;28;20046;-64
2022/12/27 05:03:09;;;;;;;3.50;1.70;;;;;;;-0.47;100.00;94935.19;4991618;28;20935;-64
2022/12/27 05:05:37;;;;;;;7.95;4.68;;;;;;;-0.53;100.00;94924.91;4992409;28;20112;-64
2022/12/27 05:16:21;;;;;;;5.28;2.13;;;;;;;-0.66;100.00;94922.06;4993005;28;20054;-64
2022/12/27 05:18:48;;;;;;;4.05;1.85;;;;;;;-0.64;100.00;94925.25;4991775;28;20046;-64
2022/12/27 05:21:14;;;;;;;7.25;2.97;;;;;;;-0.64;100.00;94922.56;4992728;28;20403;-64
2022/12/27 05:26:32;;;;;;;4.75;2.15;;;;;;;-0.65;100.00;94931.75;4992835;28;20038;-64
2022/12/27 05:28:59;;;;;;;8.23;2.60;;;;;;;-0.63;100.00;94916.03;4991613;28;20516;-64
2022/12/27 05:31:27;;;;;;;9.90;4.55;;;;;;;-0.56;100.00;94920.16;4992445;28;20042;-64
2022/12/27 05:33:55;;;;;;;4.30;2.20;;;;;;;-0.56;100.00;94920.16;4991731;28;20053;-64
2022/12/27 05:36:22;;;;;;;6.40;2.60;;;;;;;-0.58;100.00;94919.69;4992548;28;20050;-64
2022/12/27 05:38:50;;;;;;;5.32;2.72;;;;;;;-0.55;100.00;94919.84;4991605;28;20038;-64
2022/12/27 05:41:17;;;;;;;5.68;2.15;;;;;;;-0.53;100.00;94919.53;4992427;28;20065;-64
2022/12/27 05:43:43;;;;;;;5.55;2.28;;;;;;;-0.53;100.00;94917.59;4991691;28;20427;-65
2022/12/27 05:46:13;;;;;;;5.05;2.10;;;;;;;-0.52;100.00;94929.22;4992262;28;20104;-64
2022/12/27 05:48:40;;;;;;;8.25;2.55;;;;;;;-0.52;100.00;94927.28;4991377;28;20403;-64
2022/12/27 05:51:17;;;;;;;6.55;2.53;;;;;;;-0.96;100.00;94914.97;4992095;28;20100;-64
2022/12/27 05:53:44;;;;;;;5.63;2.50;;;;;;;-0.92;100.00;94927.50;4991344;28;20487;-64
2022/12/27 05:56:14;;;;;;;5.88;2.75;;;;;;;-0.75;100.00;94928.59;4992391;28;20038;-64
2022/12/27 05:58:41;;;;;;;6.55;2.47;;;;;;;-0.71;100.00;94929.53;4991105;28;20052;-64
2022/12/27 06:01:10;;;;;;;4.53;1.98;;;;;;;-0.74;100.00;94936.38;4991628;28;20042;-64
2022/12/27 06:03:37;;;;;;;5.03;2.10;;;;;;;-0.73;100.00;94935.22;4991066;28;20413;-64
2022/12/27 06:06:05;;;;;;;6.93;2.50;;;;;;;-0.96;100.00;94941.91;4979065;28;20100;-64
2022/12/27 06:08:33;;;;;;;5.43;2.53;;;;;;;-1.12;100.00;94945.06;5003978;28;20160;-64
2022/12/27 06:11:08;;;;;;;6.00;2.45;;;;;;;-1.10;100.00;94953.63;4991204;28;20847;-64
2022/12/27 06:13:35;;;;;;;5.50;2.58;;;;;;;-1.16;100.00;94941.44;4991096;28;20045;-64
2022/12/27 06:16:04;;;;;;;5.63;2.25;;;;;;;-1.17;100.00;94944.44;4991464;28;20052;-64
2022/12/27 06:18:32;;;;;;;4.85;2.53;;;;;;;-1.02;100.00;94935.88;4991759;28;20034;-64
2022/12/27 06:21:01;;;;;;;6.15;2.40;;;;;;;-0.96;100.00;94948.09;4981086;28;20390;-64
2022/12/27 06:23:28;;;;;;;5.30;2.22;;;;;;;-1.02;100.00;94944.75;4991374;28;20038;-64
2022/12/27 06:25:55;;;;;;;7.25;2.70;;;;;;;-1.06;100.00;94946.50;5005848;28;20050;-64
2022/12/27 06:28:21;;;;;;;12.30;4.30;;;;;;;-1.10;100.00;94950.16;4991520;28;20376;-64
2022/12/27 06:30:49;;;;;;;10.48;4.43;;;;;;;-1.25;100.00;94938.72;5003355;28;20042;-64
2022/12/27 06:33:16;;;;;;;9.32;3.40;;;;;;;-1.26;100.00;94945.22;4991189;28;20487;-64
2022/12/27 06:35:42;;;;;;;8.10;4.35;;;;;;;-1.24;100.00;94939.50;4990467;28;20392;-64
2022/12/27 06:38:09;;;;;;;6.40;3.05;;;;;;;-1.56;100.00;94952.28;5006234;28;20050;-64
2022/12/27 06:40:36;;;;;;;5.53;2.80;;;;;;;-1.59;100.00;94954.78;4990737;28;20050;-64
2022/12/27 06:43:02;;;;;;;7.47;2.80;;;;;;;-1.53;100.00;94945.47;4991037;28;20511;-64
2022/12/27 06:45:29;;;;;;;5.03;2.80;;;;;;;-1.48;100.00;94956.09;4991168;28;20042;-64
2022/12/27 06:47:56;;;;;;;6.47;2.80;;;;;;;-1.48;100.00;94948.81;4977912;28;20386;-64
2022/12/27 06:50:23;;;;;;;8.25;3.78;;;;;;;-1.44;100.00;94960.53;4991049;28;20038;-64
2022/12/27 06:52:49;;;;;;;18.83;7.45;;;;;;;-1.50;100.00;94958.31;4990358;28;20042;-64
2022/12/27 06:55:16;;;;;;;17.55;7.50;;;;;;;-1.50;100.00;94966.38;4984688;28;20051;-64
2022/12/27 06:57:43;;;;;;;17.20;7.63;;;;;;;-1.48;100.00;94969.56;4990353;28;20553;-64
2022/12/27 07:00:12;;;;;;;8.88;4.32;;;;;;;-1.42;100.00;94966.41;4990766;28;20384;-64
2022/12/27 07:02:39;;;;;;;7.85;4.20;;;;;;;-1.43;100.00;94974.78;4990104;28;20050;-64
2022/12/27 07:05:06;;;;;;;7.05;4.00;;;;;;;-1.38;100.00;94973.88;4990864;28;20057;-64
2022/12/27 07:07:33;;;;;;;9.25;4.15;;;;;;;-1.38;100.00;94977.34;4990936;28;20042;-64
2022/12/27 07:10:00;;;;;;;9.45;4.03;;;;;;;-1.34;100.00;94972.13;4990016;28;21637;-64
2022/12/27 07:12:26;;;;;;;7.93;4.03;;;;;;;-1.36;100.00;94966.28;4991009;28;20046;-64
2022/12/27 07:15:04;;;;;;;7.68;3.70;;;;;;;-1.35;100.00;94974.00;4983869;28;20544;-64
2022/12/27 07:17:30;;;;;;;10.68;4.78;;;;;;;-1.36;100.00;94975.13;4987793;28;20533;-64
2022/12/27 07:19:57;;;;;;;10.25;4.75;;;;;;;-1.33;100.00;94985.25;4990282;28;20049;-64
2022/12/27 07:22:25;;;;;;;12.80;5.30;;;;;;;-1.41;100.00;94978.78;4990786;28;20392;-64
2022/12/27 07:24:52;;;;;;;14.43;5.85;;;;;;;-1.36;100.00;94979.72;5004710;28;20427;-64
2022/12/27 07:27:18;;;;;;;15.18;5.90;;;;;;;-1.24;100.00;94979.91;4990363;28;20054;-64
2022/12/27 07:29:45;;;;;;;15.35;6.80;;;;;;;-1.16;100.00;94978.34;4989917;28;20046;-64
2022/12/27 07:32:12;;;;;;;18.42;8.00;;;;;;;-1.04;100.00;94983.91;4993226;28;20046;-64
2022/12/27 07:34:38;;;;;;;14.23;6.75;;;;;;;-0.97;100.00;94981.53;4996178;28;20053;-64
2022/12/27 07:37:06;;;;;;;12.57;6.03;;;;;;;-1.06;100.00;94976.13;4997189;28;20042;-64
2022/12/27 07:39:33;;;;;;;13.80;7.38;;;;;;;-1.07;100.00;94982.63;4997299;28;20030;-64
2022/12/27 07:41:59;;;;;;;13.20;6.72;;;;;;;-0.90;100.00;94989.16;4996497;28;20387;-64
2022/12/27 07:44:33;;;;;;;17.00;8.13;;;;;;;-0.77;100.00;94990.09;4996877;28;20043;-64
2022/12/27 07:47:00;;;;;;;19.67;9.80;;;;;;;-0.68;100.00;94996.31;4996179;28;20453;-64
2022/12/27 07:49:27;;;;;;;18.63;9.88;;;;;;;-0.57;100.00;94986.75;4996737;28;20046;-64
2022/12/27 07:51:54;;;;;;;15.50;8.38;;;;;;;-0.47;100.00;94983.75;4996244;28;20048;-64
2022/12/27 07:54:20;;;;;;;14.85;7.57;;;;;;;-0.39;100.00;94981.38;4996654;28;20046;-64
2022/12/27 07:56:47;;;;;;;11.85;6.53;;;;;;;-0.28;100.00;94980.72;4996069;28;20161;-64
2022/12/27 07:59:14;;;;;;;15.73;8.52;;;;;;;-0.41;100.00;94978.97;4996572;28;20136;-64
2022/12/27 08:04:40;;;;;;;13.95;7.13;;;;;;;-0.51;100.00;94990.88;4994204;28;20395;-64
2022/12/27 08:07:12;;;;;;;21.17;9.25;;;;;;;-1.01;100.00;94983.25;4996601;28;20104;-64
2022/12/27 08:09:42;;;;;;;15.15;7.05;;;;;;;-1.07;100.00;94981.81;4995805;28;20042;-64
2022/12/27 08:12:09;;;;;;;13.88;6.63;;;;;;;-0.88;100.00;94993.13;4996765;28;20046;-64
2022/12/27 08:14:36;;;;;;;16.45;8.07;;;;;;;-0.42;100.00;94988.97;4995590;28;20054;-65
2022/12/27 08:17:15;;;;;;;17.30;9.15;;;;;;;0.13;100.00;94986.66;4996662;28;20040;-65
2022/12/27 08:19:42;;;;;;;17.10;9.07;;;;;;;0.28;100.00;94990.72;5001234;28;20048;-65
2022/12/27 08:22:10;;;;;;;28.15;14.05;;;;;;;0.28;100.00;94998.81;4997296;28;20400;-64
2022/12/27 08:24:37;;;;;;;37.17;17.15;;;;;;;0.24;100.00;94995.19;4995770;28;20406;-64
2022/12/27 08:27:04;;;;;;;30.70;15.82;;;;;;;0.39;100.00;95000.84;4996425;28;20187;-64
2022/12/27 08:29:30;;;;;;;25.58;12.35;;;;;;;0.43;100.00;94998.28;4996561;28;20483;-65
2022/12/27 08:31:58;;;;;;;30.55;15.35;;;;;;;-0.10;100.00;95000.38;4995921;28;20046;-64
2022/12/27 08:34:25;;;;;;;25.60;13.93;;;;;;;0.32;100.00;94997.88;4996476;28;20054;-64
2022/12/27 08:36:52;;;;;;;20.42;10.65;;;;;;;0.72;100.00;94986.69;4995814;28;20056;-64
2022/12/27 08:39:21;;;;;;;16.20;8.45;;;;;;;1.50;100.00;94996.19;4995894;28;20497;-64
2022/12/27 08:41:48;;;;;;;17.23;8.90;;;;;;;2.29;100.00;95006.28;4995771;28;20043;-65
2022/12/27 08:44:15;;;;;;;18.25;9.10;;;;;;;2.36;100.00;95001.09;4994203;28;20406;-66
2022/12/27 08:46:42;;;;;;;17.63;8.13;;;;;;;2.54;99.83;95004.41;4992506;28;20054;-66
2022/12/27 08:49:08;;;;;;;17.98;9.00;;;;;;;3.00;98.52;94999.66;4993089;28;20557;-66
2022/12/27 08:51:35;;;;;;;22.35;11.50;;;;;;;3.30;94.62;94999.38;4992988;28;20054;-65
2022/12/27 08:54:07;;;;;;;19.03;9.50;;;;;;;4.20;92.39;94994.53;4993108;28;20034;-66
2022/12/27 08:56:34;;;;;;;15.70;9.00;;;;;;;4.02;91.28;94985.91;4992698;28;20035;-65
2022/12/27 08:59:02;;;;;;;19.08;10.35;;;;;;;4.24;89.66;94994.63;4992642;28;20438;-66
2022/12/27 09:01:28;;;;;;;19.88;9.50;;;;;;;4.32;87.76;94980.09;4992817;28;20047;-66
2022/12/27 09:03:55;;;;;;;16.98;10.02;;;;;;;4.95;86.50;94976.56;4992325;28;20503;-66
2022/12/27 09:06:23;;;;;;;18.43;10.33;;;;;;;6.24;80.63;94987.44;4992895;28;20454;-66
2022/12/27 09:08:53;;;;;;;17.95;10.20;;;;;;;7.29;73.76;94976.31;4992300;28;20081;-65
2022/12/27 09:11:23;;;;;;;17.00;9.27;;;;;;;7.40;71.29;94978.03;4992637;28;20330;-65
2022/12/27 09:13:49;;;;;;;11.68;6.30;;;;;;;7.96;68.17;94983.81;5003249;28;20487;-65
2022/12/27 09:16:23;;;;;;;11.32;5.90;;;;;;;9.66;63.94;94973.97;4994019;28;20057;-65
2022/12/27 09:18:52;;;;;;;9.17;5.20;;;;;;;10.08;61.83;94974.50;5006865;28;20049;-66
2022/12/27 09:21:20;;;;;;;9.18;5.15;;;;;;;8.82;63.89;94989.41;4992463;28;20054;-66
2022/12/27 09:23:48;;;;;;;9.23;4.78;;;;;;;7.65;67.62;94995.91;4991882;28;20137;-66
2022/12/27 09:26:20;;;;;;;8.95;4.80;;;;;;;6.33;71.58;95006.28;4992236;28;20046;-65
2022/12/27 09:28:48;;;;;;;7.90;4.82;;;;;;;6.72;72.20;94990.63;4992049;28;20092;-65
2022/12/27 09:31:17;;;;;;;11.53;6.80;;;;;;;6.36;73.23;95002.88;5007192;28;20046;-66
2022/12/27 09:33:44;;;;;;;11.38;6.50;;;;;;;5.81;77.22;95011.09;4991719;28;20038;-66
2022/12/27 09:36:11;;;;;;;10.68;5.45;;;;;;;5.41;79.65;95004.03;4992355;28;20054;-65
2022/12/27 09:38:40;;;;;;;13.55;7.78;;;;;;;5.16;81.54;95007.00;4991891;28;20514;-66
2022/12/27 09:41:31;;;;;;;9.00;5.15;;;;;;;4.80;83.73;95006.13;4992195;28;20073;-65
2022/12/27 09:44:25;;;;;;;11.67;7.03;;;;;;;5.02;84.02;95003.94;4991132;28;20614;-66
2022/12/27 09:47:16;;;;;;;10.73;5.38;;;;;;;5.19;82.81;95003.56;4991216;28;20054;-65
2022/12/27 09:49:53;;;;;;;10.90;6.00;;;;;;;4.61;85.36;95006.06;4979789;28;20058;-65
2022/12/27 09:52:33;;;;;;;14.43;7.82;;;;;;;3.63;90.62;95003.84;4991880;28;20052;-65
2022/12/27 09:55:09;;;;;;;15.73;8.63;;;;;;;3.86;92.93;95009.53;4990412;28;21717;-65
2022/12/27 09:57:39;;;;;;;25.55;12.93;;;;;;;3.48;91.21;95008.06;4991508;28;20046;-65
2022/12/27 10:00:14;;;;;;;17.90;9.48;;;;;;;3.22;94.87;95000.31;4991528;28;20049;-65
2022/12/27 10:02:45;;;;;;;16.92;8.57;;;;;;;3.44;94.17;95013.41;4990843;28;20463;-64
2022/12/27 10:05:20;;;;;;;19.38;8.68;;;;;;;4.04;92.06;95018.16;4991685;28;20050;-65
2022/12/27 10:08:12;;;;;;;18.08;9.32;;;;;;;4.84;90.32;95011.69;4989599;28;20043;-66
2022/12/27 10:10:42;;;;;;;18.20;9.00;;;;;;;6.83;81.33;95007.16;4991189;28;20042;-66
2022/12/27 10:13:35;;;;;;;14.60;7.97;;;;;;;8.16;73.31;94995.34;4998908;28;20049;-66
2022/12/27 10:16:12;;;;;;;14.32;7.60;;;;;;;7.60;71.70;94997.78;4988225;28;20772;-66
2022/12/27 10:18:39;;;;;;;14.82;7.85;;;;;;;8.54;69.45;94996.19;5006082;28;20046;-66
2022/12/27 10:21:36;;;;;;;16.80;8.48;;;;;;;7.34;72.27;94989.63;4998052;28;20046;-66
2022/12/27 10:24:29;;;;;;;15.17;8.43;;;;;;;6.71;74.33;94996.44;4988012;28;20627;-66
2022/12/27 10:26:55;;;;;;;14.35;8.15;;;;;;;6.88;76.76;94998.69;4981709;28;20050;-64
2022/12/27 10:29:24;;;;;;;12.40;7.15;;;;;;;7.14;77.02;94997.94;5005913;28;20160;-64
2022/12/27 10:31:51;;;;;;;11.02;5.57;;;;;;;7.41;73.31;94989.72;4990287;28;20064;-64
2022/12/27 10:34:25;;;;;;;11.55;5.38;;;;;;;7.15;74.12;94995.97;4990921;28;20048;-64
2022/12/27 10:36:52;;;;;;;8.23;4.50;;;;;;;6.96;75.23;94991.38;4990514;28;20521;-64
2022/12/27 10:39:25;;;;;;;8.32;4.60;;;;;;;8.22;72.99;94984.88;4990917;28;20034;-64
2022/12/27 10:42:24;;;;;;;7.50;4.90;;;;;;;8.58;67.69;94988.78;4990354;28;20054;-64
2022/12/27 10:44:51;;;;;;;9.18;5.10;;;;;;;9.80;64.25;94979.50;4954682;28;20046;-64
2022/12/27 10:47:17;;;;;;;7.75;4.88;;;;;;;9.86;62.71;94979.94;4990798;28;20039;-65
2022/12/27 10:50:08;;;;;;;9.17;5.47;;;;;;;10.32;61.25;94986.78;4989163;28;20177;-64
2022/12/27 10:52:34;;;;;;;8.57;4.82;;;;;;;12.66;54.33;94976.25;4990439;28;20047;-64
2022/12/27 10:55:01;;;;;;;6.90;4.50;;;;;;;14.55;50.52;94978.34;4990828;28;20045;-65
2022/12/27 10:57:32;;;;;;;7.00;3.80;;;;;;;13.71;50.60;94979.72;4990681;28;20042;-65
2022/12/27 11:00:21;;;;;;;7.60;3.65;;;;;;;13.05;51.08;94978.69;4989742;28;20710;-65
2022/12/27 11:03:02;;;;;;;6.73;4.17;;;;;;;12.02;55.42;94982.84;4989582;28;20060;-64
2022/12/27 11:05:30;;;;;;;6.97;4.20;;;;;;;13.09;52.66;94982.22;4990647;28;20042;-65
2022/12/27 11:07:57;;;;;;;8.68;4.30;;;;;;;13.28;52.94;94977.34;4989117;28;20038;-65
2022/12/27 11:10:30;;;;;;;6.30;3.95;;;;;;;15.58;47.24;94975.97;4989158;28;20188;-64
2022/12/27 11:13:05;;;;;;;10.18;4.45;;;;;;;13.72;49.25;94976.56;4977208;28;20406;-65
2022/12/27 11:15:35;;;;;;;7.00;4.13;;;;;;;14.40;49.04;94969.47;4990587;28;20124;-66
2022/12/27 11:18:17;;;;;;;9.45;5.05;;;;;;;13.99;49.27;94962.09;4989194;28;20859;-65
2022/12/27 11:20:51;;;;;;;5.97;3.28;;;;;;;14.86;46.62;94964.50;4990017;28;20046;-65
2022/12/27 11:23:21;;;;;;;5.90;3.10;;;;;;;14.95;46.08;94962.00;4990475;28;20050;-66
2022/12/27 11:25:51;;;;;;;6.90;4.00;;;;;;;14.44;47.05;94955.59;4989241;28;20058;-65
2022/12/27 11:28:42;;;;;;;8.47;4.83;;;;;;;9.23;61.52;94962.72;5005521;28;20558;-65
2022/12/27 11:31:13;;;;;;;13.38;6.00;;;;;;;7.70;69.57;94960.06;4989144;28;20904;-65
2022/12/27 11:33:48;;;;;;;10.57;5.80;;;;;;;7.96;70.09;94959.97;4990021;28;20049;-66
2022/12/27 11:36:26;;;;;;;9.75;6.32;;;;;;;9.53;64.80;94954.28;4978136;28;20057;-66
2022/12/27 11:38:53;;;;;;;8.98;5.70;;;;;;;10.28;62.81;94950.28;4989357;28;20068;-66
2022/12/27 11:41:44;;;;;;;9.33;4.67;;;;;;;10.06;62.55;94952.97;4990044;28;20418;-66
2022/12/27 11:44:21;;;;;;;8.23;4.50;;;;;;;9.33;60.71;94948.31;4989201;28;20827;-65
2022/12/27 11:47:12;;;;;;;7.25;4.00;;;;;;;7.25;70.46;94946.22;4989811;28;20045;-65
2022/12/27 11:49:51;;;;;;;8.52;4.00;;;;;;;6.61;72.91;94946.00;4989549;28;20067;-65
2022/12/27 11:52:44;;;;;;;8.93;5.13;;;;;;;7.38;70.10;94939.38;4990158;28;20450;-65
2022/12/27 11:55:38;;;;;;;7.23;3.43;;;;;;;6.23;72.69;94939.53;4989169;28;20522;-65
2022/12/27 11:58:20;;;;;;;7.57;3.38;;;;;;;6.45;71.94;94948.09;4986433;28;20038;-65
2022/12/27 12:01:06;;;;;;;6.32;3.17;;;;;;;5.71;74.77;94944.34;4989823;28;20077;-65
2022/12/27 12:03:38;;;;;;;5.63;2.65;;;;;;;5.79;74.18;94946.09;4989883;28;20042;-65
2022/12/27 12:06:14;;;;;;;5.07;2.50;;;;;;;6.40;70.20;94939.06;4988990;28;20544;-65
2022/12/27 12:08:59;;;;;;;6.30;2.53;;;;;;;6.96;67.99;94936.81;4989428;28;20039;-65
2022/12/27 12:11:42;;;;;;;10.52;4.95;;;;;;;8.63;67.04;94936.44;4990063;28;20450;-66
2022/12/27 12:14:11;;;;;;;12.20;4.85;;;;;;;8.17;66.55;94936.78;4988872;28;21731;-64
2022/12/27 12:17:13;;;;;;;14.50;5.70;;;;;;;7.36;73.05;94940.88;4989573;28;20042;-64
2022/12/27 12:19:58;;;;;;;14.13;5.85;;;;;;;7.41;72.61;94943.31;4992466;28;20449;-64
2022/12/27 12:22:37;;;;;;;13.83;6.03;;;;;;;7.38;74.34;94942.13;4993789;28;20517;-64
2022/12/27 12:25:48;;;;;;;11.02;5.53;;;;;;;7.42;76.23;94944.88;4992391;28;20388;-64
2022/12/27 12:28:30;;;;;;;10.93;5.65;;;;;;;7.57;75.05;94940.41;4980496;28;20910;-64
2022/12/27 12:31:35;;;;;;;9.57;4.72;;;;;;;6.77;77.13;94937.69;4992403;28;20046;-64
2022/12/27 12:34:16;;;;;;;10.35;5.60;;;;;;;6.36;79.73;94934.69;4992180;28;20048;-64
2022/12/27 12:37:07;;;;;;;8.60;4.77;;;;;;;5.82;79.65;94936.41;4993061;28;20042;-64
2022/12/27 12:39:36;;;;;;;11.98;5.57;;;;;;;5.76;83.33;94932.41;4993184;28;20050;-64
2022/12/27 12:42:06;;;;;;;12.93;7.10;;;;;;;6.07;83.26;94923.28;4992242;28;20852;-64
2022/12/27 12:44:39;;;;;;;15.65;7.65;;;;;;;6.29;82.90;94924.44;4993387;28;20076;-65
2022/12/27 12:47:29;;;;;;;13.63;7.28;;;;;;;6.25;82.55;94926.31;4992031;28;20056;-65
2022/12/27 12:50:26;;;;;;;12.07;6.10;;;;;;;6.56;80.39;94925.31;4992546;28;20054;-65
2022/12/27 12:53:30;;;;;;;12.88;7.10;;;;;;;6.36;80.32;94921.06;4992842;28;20093;-65
2022/12/27 12:56:27;;;;;;;12.27;6.45;;;;;;;6.40;79.50;94921.91;4992412;28;20386;-62
2022/12/27 12:59:12;;;;;;;12.15;5.20;;;;;;;6.14;80.87;94917.19;4992351;28;20058;-63
2022/12/27 13:01:52;;;;;;;8.50;4.28;;;;;;;6.25;77.57;94920.88;4980977;28;20042;-63
2022/12/27 13:04:41;;;;;;;7.00;3.20;;;;;;;6.24;75.84;94924.75;4993228;28;20407;-65
2022/12/27 13:07:21;;;;;;;6.63;2.53;;;;;;;6.26;73.29;94925.19;4991899;28;20481;-65
2022/12/27 13:10:04;;;;;;;6.20;2.88;;;;;;;5.55;74.77;94919.94;4978271;28;20210;-65
2022/12/27 13:12:41;;;;;;;10.82;4.30;;;;;;;5.70;76.73;94925.69;4993018;28;20038;-65
2022/12/27 13:15:28;;;;;;;10.52;4.30;;;;;;;5.91;75.95;94922.56;4991770;28;20920;-65
2022/12/27 13:17:58;;;;;;;5.37;2.53;;;;;;;5.91;74.53;94912.44;4991857;28;20058;-65
2022/12/27 13:21:01;;;;;;;6.07;1.80;;;;;;;6.05;73.94;94919.34;4992646;28;20068;-65
2022/12/27 13:23:58;;;;;;;9.63;3.85;;;;;;;5.82;73.55;94916.56;4983398;28;21721;-65
2022/12/27 13:26:34;;;;;;;7.35;3.10;;;;;;;5.84;74.12;94917.78;4990381;28;20692;-64
2022/12/27 13:29:20;;;;;;;11.32;4.13;;;;;;;5.95;74.41;94923.44;4991114;28;20815;-64
2022/12/27 13:31:58;;;;;;;14.00;5.20;;;;;;;5.66;74.79;94925.59;4991632;28;20068;-64
2022/12/27 13:34:49;;;;;;;7.13;3.50;;;;;;;5.35;75.02;94930.03;4992450;28;20054;-64
2022/12/27 13:37:24;;;;;;;10.40;4.63;;;;;;;5.06;77.11;94925.91;4991256;28;21601;-65
2022/12/27 13:40:09;;;;;;;7.90;3.40;;;;;;;5.04;78.18;94927.41;4992080;28;20453;-64
2022/12/27 13:43:08;;;;;;;7.88;3.60;;;;;;;5.01;79.59;94920.75;4991458;28;20038;-64
2022/12/27 13:45:57;;;;;;;6.87;2.90;;;;;;;5.10;79.46;94929.50;5006779;28;20479;-64
2022/12/27 13:48:35;;;;;;;9.45;2.85;;;;;;;5.04;80.75;94921.97;4992153;28;20053;-64
2022/12/27 13:51:11;;;;;;;15.02;6.00;;;;;;;4.97;81.42;94926.13;4990946;28;21617;-65